Time;durP1;ratioP1;P1;durP2;ratioP2;P2;SDS_P1;SDS_P2;PMS_P1;PMS_P2;Temp;Humidity;BMP_temperature;BMP_pressure;BME280_temperature;BME280_humidity;BME280_pressure;Samples;Min_cycle;Max_cycle;Signal;HPM_P1;HPM_P2
2022/08/04 00:02:00;;;;;;;2.42;1.92;;;18.10;99.90;;;;;;5074491;28;20086;-72
2022/08/04 00:04:33;;;;;;;2.38;2.00;;;18.10;99.90;;;;;;5078945;28;20033;-72
2022/08/04 00:07:13;;;;;;;1.60;1.50;;;18.00;99.90;;;;;;5060224;28;20600;-74
2022/08/04 00:09:46;;;;;;;2.78;1.65;;;18.00;99.90;;;;;;5074466;28;20032;-74
2022/08/04 00:12:16;;;;;;;1.95;1.75;;;18.00;99.90;;;;;;5074290;28;20048;-73
2022/08/04 00:14:50;;;;;;;2.90;2.05;;;18.00;99.90;;;;;;5074059;28;20036;-74
2022/08/04 00:17:19;;;;;;;1.98;1.88;;;18.00;99.90;;;;;;5073698;28;20021;-75
2022/08/04 00:19:47;;;;;;;1.65;1.55;;;17.90;99.90;;;;;;5073239;28;20514;-74
2022/08/04 00:22:18;;;;;;;1.85;1.75;;;17.90;99.90;;;;;;5073851;28;20021;-74
2022/08/04 00:24:44;;;;;;;2.35;2.15;;;17.90;99.90;;;;;;5073921;28;20020;-74
2022/08/04 00:27:12;;;;;;;2.30;2.00;;;17.80;99.90;;;;;;5073618;28;20024;-75
2022/08/04 00:29:38;;;;;;;1.70;1.60;;;17.80;99.90;;;;;;5073798;28;20033;-74
2022/08/04 00:32:06;;;;;;;2.90;2.20;;;17.80;99.90;;;;;;5055971;28;20111;-74
2022/08/04 00:34:33;;;;;;;2.38;2.03;;;17.90;99.90;;;;;;5074067;28;20170;-74
2022/08/04 00:36:59;;;;;;;2.13;2.03;;;17.80;99.90;;;;;;5074212;28;20024;-74
2022/08/04 00:39:25;;;;;;;4.05;1.98;;;17.80;99.90;;;;;;5074182;28;20021;-75
2022/08/04 00:42:33;;;;;;;2.22;2.03;;;17.80;99.90;;;;;;5073750;28;20028;-76
2022/08/04 00:45:19;;;;;;;2.53;2.33;;;17.80;99.90;;;;;;5008611;28;20035;-73
2022/08/04 00:48:07;;;;;;;3.72;2.60;;;17.70;99.90;;;;;;5073136;28;20028;-74
2022/08/04 00:51:06;;;;;;;3.13;2.85;;;17.70;99.90;;;;;;5073596;28;20028;-73
2022/08/04 00:53:59;;;;;;;2.92;2.70;;;17.60;99.90;;;;;;5073026;28;20025;-76
2022/08/04 00:57:02;;;;;;;2.65;2.20;;;17.60;99.90;;;;;;5073111;28;20032;-74
2022/08/04 00:59:48;;;;;;;2.35;2.15;;;17.50;99.90;;;;;;5073030;28;20028;-75
2022/08/04 01:02:44;;;;;;;4.45;2.05;;;17.40;99.90;;;;;;5072903;28;20371;-73
2022/08/04 01:05:37;;;;;;;2.10;1.97;;;17.40;99.90;;;;;;5073073;28;20024;-73
2022/08/04 01:09:00;;;;;;;3.38;3.08;;;17.40;99.90;;;;;;5073036;28;20459;-73
2022/08/04 01:11:39;;;;;;;2.88;2.35;;;17.40;99.90;;;;;;4991347;28;20053;-74
2022/08/04 01:14:12;;;;;;;1.92;1.80;;;17.20;99.90;;;;;;4991218;28;20038;-72
2022/08/04 01:16:49;;;;;;;4.13;2.60;;;17.30;99.90;;;;;;5039478;28;20499;-73
2022/08/04 01:19:33;;;;;;;4.93;2.50;;;17.30;99.90;;;;;;5072500;28;20048;-72
2022/08/04 01:22:07;;;;;;;2.15;1.95;;;17.30;99.90;;;;;;5054612;28;20104;-73
2022/08/04 01:24:48;;;;;;;2.35;2.08;;;17.30;99.90;;;;;;5054854;28;20024;-73
2022/08/04 01:27:23;;;;;;;3.95;2.13;;;17.30;99.90;;;;;;5072574;28;20020;-74
2022/08/04 01:29:52;;;;;;;2.70;2.42;;;17.20;99.90;;;;;;5072701;28;20052;-72
2022/08/04 01:32:33;;;;;;;2.38;2.17;;;17.20;99.90;;;;;;5072345;28;20127;-75
2022/08/04 01:35:07;;;;;;;2.25;2.05;;;17.20;99.90;;;;;;5072310;28;20468;-74
2022/08/04 01:37:58;;;;;;;2.67;2.47;;;17.20;99.90;;;;;;5072187;28;20021;-72
2022/08/04 01:40:26;;;;;;;3.67;2.90;;;17.10;99.90;;;;;;5072204;28;20109;-73
2022/08/04 01:42:53;;;;;;;3.45;2.53;;;17.10;99.90;;;;;;5054188;28;20578;-74
2022/08/04 01:45:22;;;;;;;2.70;2.42;;;17.00;99.90;;;;;;5072215;28;20048;-74
2022/08/04 01:47:50;;;;;;;2.22;2.10;;;17.00;99.90;;;;;;5072210;28;20063;-74
2022/08/04 01:50:16;;;;;;;2.17;2.05;;;17.00;99.90;;;;;;5072567;28;20414;-74
2022/08/04 01:52:44;;;;;;;3.67;2.50;;;17.00;99.90;;;;;;5072032;28;20099;-74
2022/08/04 01:55:11;;;;;;;3.15;2.13;;;17.00;99.90;;;;;;5071915;28;20531;-74
2022/08/04 01:57:42;;;;;;;4.93;2.78;;;16.90;99.90;;;;;;5072017;28;20044;-74
2022/08/04 02:00:10;;;;;;;2.50;2.30;;;16.90;99.90;;;;;;5072057;28;20085;-74
2022/08/04 02:02:36;;;;;;;3.03;2.28;;;16.90;99.90;;;;;;5072032;28;20078;-73
2022/08/04 02:05:02;;;;;;;2.70;2.50;;;16.90;99.90;;;;;;5072073;28;20020;-75
2022/08/04 02:08:01;;;;;;;2.90;2.30;;;16.80;99.90;;;;;;5071855;28;20035;-74
2022/08/04 02:10:55;;;;;;;3.10;2.80;;;16.80;99.90;;;;;;5072041;28;20510;-72
2022/08/04 02:13:40;;;;;;;4.20;3.63;;;16.70;99.90;;;;;;5071720;28;20060;-73
2022/08/04 02:16:11;;;;;;;5.00;4.45;;;16.70;99.90;;;;;;5071739;28;20021;-74
2022/08/04 02:19:18;;;;;;;4.80;3.97;;;16.70;99.90;;;;;;5071659;28;20075;-73
2022/08/04 02:21:50;;;;;;;6.63;3.95;;;16.60;99.90;;;;;;5071762;28;20051;-73
2022/08/04 02:24:20;;;;;;;5.05;4.05;;;16.60;99.90;;;;;;5053579;28;20420;-72
2022/08/04 02:26:48;;;;;;;5.50;5.00;;;16.60;99.90;;;;;;5071845;28;20021;-73
2022/08/04 02:29:24;;;;;;;6.28;4.30;;;16.60;99.90;;;;;;5071536;28;20028;-73
2022/08/04 02:31:55;;;;;;;;;;;16.60;99.90;;;;;;5071902;28;20044;-75
2022/08/04 02:34:39;;;;;;;5.25;3.50;;;16.50;99.90;;;;;;5071413;28;20481;-76
2022/08/04 02:37:05;;;;;;;3.22;2.92;;;16.50;99.90;;;;;;5071428;28;20496;-74
2022/08/04 02:39:34;;;;;;;2.78;2.55;;;16.40;99.90;;;;;;5071583;28;20513;-75
2022/08/04 02:42:03;;;;;;;2.10;2.00;;;16.40;99.90;;;;;;5053389;28;20123;-74
2022/08/04 02:44:30;;;;;;;2.20;2.00;;;16.40;99.90;;;;;;5074020;28;20009;-74
2022/08/04 02:46:58;;;;;;;2.58;2.25;;;16.40;99.90;;;;;;5057313;28;20468;-76
2022/08/04 02:49:25;;;;;;;3.47;2.20;;;16.40;99.90;;;;;;5075579;28;20060;-74
2022/08/04 02:51:54;;;;;;;4.07;3.33;;;16.40;99.90;;;;;;5075482;28;20016;-74
2022/08/04 02:54:32;;;;;;;6.97;5.10;;;16.30;99.90;;;;;;5075337;28;20067;-74
2022/08/04 02:56:59;;;;;;;4.90;4.15;;;16.30;99.90;;;;;;5075246;28;20048;-74
2022/08/04 02:59:26;;;;;;;9.88;3.63;;;16.30;99.90;;;;;;5075261;28;20017;-74
2022/08/04 03:01:56;;;;;;;6.70;3.08;;;16.20;99.90;;;;;;5075324;28;20016;-74
2022/08/04 03:04:40;;;;;;;3.97;2.67;;;16.20;99.90;;;;;;5075295;28;20021;-74
2022/08/04 03:07:43;;;;;;;4.47;2.55;;;16.20;99.90;;;;;;5057204;28;20024;-73
2022/08/04 03:10:33;;;;;;;4.55;2.35;;;16.20;99.90;;;;;;5075063;28;20028;-74
2022/08/04 03:13:28;;;;;;;4.68;2.53;;;16.30;99.90;;;;;;5074829;28;20029;-76
2022/08/04 03:16:28;;;;;;;4.93;2.80;;;16.30;99.90;;;;;;5056797;28;20061;-74
2022/08/04 03:18:54;;;;;;;2.72;2.20;;;16.30;99.90;;;;;;5074948;28;20131;-76
2022/08/04 03:21:52;;;;;;;4.78;2.58;;;16.20;99.90;;;;;;5074809;28;20091;-73
2022/08/04 03:24:29;;;;;;;6.53;4.53;;;16.20;99.90;;;;;;5074742;28;20027;-75
2022/08/04 03:27:31;;;;;;;7.20;3.42;;;16.20;99.90;;;;;;5074685;28;20036;-74
2022/08/04 03:30:06;;;;;;;2.65;2.45;;;16.20;99.90;;;;;;5074836;28;20510;-75
2022/08/04 03:32:53;;;;;;;2.73;2.53;;;16.10;99.90;;;;;;5056578;28;20460;-74
2022/08/04 03:35:56;;;;;;;3.35;2.90;;;16.10;99.90;;;;;;5074330;28;20301;-74
2022/08/04 03:38:46;;;;;;;4.93;2.08;;;16.00;99.90;;;;;;5074280;28;20031;-74
2022/08/04 03:41:31;;;;;;;2.28;2.08;;;15.90;99.90;;;;;;5074633;28;20498;-74
2022/08/04 03:44:36;;;;;;;3.70;2.42;;;15.80;99.90;;;;;;5074383;28;20020;-74
2022/08/04 03:47:04;;;;;;;5.88;2.55;;;15.80;99.90;;;;;;5070585;28;20048;-74
2022/08/04 03:49:42;;;;;;;4.22;2.42;;;15.80;99.90;;;;;;5074221;28;20028;-73
2022/08/04 03:53:08;;;;;;;2.15;2.05;;;15.80;99.90;;;;;;5056333;28;20024;-75
2022/08/04 03:55:46;;;;;;;2.80;2.08;;;15.80;99.90;;;;;;5044084;28;20049;-74
2022/08/04 03:58:42;;;;;;;5.55;2.80;;;15.80;99.90;;;;;;5073961;28;20032;-74
2022/08/04 04:01:45;;;;;;;5.97;2.47;;;15.80;99.90;;;;;;5074131;28;20104;-73
2022/08/04 04:04:13;;;;;;;7.80;3.22;;;15.80;99.90;;;;;;5074068;28;20116;-73
2022/08/04 04:06:54;;;;;;;23.13;12.25;;;15.90;99.90;;;;;;5074135;28;20436;-74
2022/08/04 04:09:31;;;;;;;22.45;14.50;;;15.90;99.90;;;;;;5073976;28;20074;-75
2022/08/04 04:12:11;;;;;;;23.35;12.75;;;15.80;99.90;;;;;;5073925;28;20113;-74
2022/08/04 04:14:37;;;;;;;17.10;11.20;;;15.90;99.90;;;;;;5055817;28;20039;-75
2022/08/04 04:17:51;;;;;;;17.90;9.88;;;15.90;99.90;;;;;;5073529;28;20021;-74
2022/08/04 04:20:42;;;;;;;21.55;12.23;;;16.40;99.90;;;;;;5074368;28;20398;-75
2022/08/04 04:23:38;;;;;;;12.57;9.40;;;17.00;99.90;;;;;;5074082;28;20040;-73
2022/08/04 04:26:25;;;;;;;13.85;8.48;;;17.60;99.90;;;;;;5078103;28;20054;-73
2022/08/04 04:29:03;;;;;;;9.68;6.25;;;18.10;99.90;;;;;;5074000;28;20025;-72
2022/08/04 04:31:51;;;;;;;6.55;4.47;;;18.30;99.90;;;;;;5063162;28;20063;-73
2022/08/04 04:34:36;;;;;;;4.50;3.78;;;18.50;99.90;;;;;;5056048;28;20479;-73
2022/08/04 04:37:20;;;;;;;3.58;3.28;;;18.60;99.90;;;;;;5076640;28;20025;-74
2022/08/04 04:39:57;;;;;;;5.00;2.92;;;18.90;99.90;;;;;;5055904;28;20383;-74
2022/08/04 04:42:54;;;;;;;2.97;2.65;;;19.10;99.90;;;;;;5074061;28;20499;-76
2022/08/04 04:45:47;;;;;;;2.45;2.05;;;19.30;99.90;;;;;;5074333;28;20047;-75
2022/08/04 04:48:52;;;;;;;2.45;2.25;;;19.50;99.90;;;;;;5056110;28;20075;-74
2022/08/04 04:51:20;;;;;;;2.17;1.98;;;19.70;99.90;;;;;;5043492;28;20033;-73
2022/08/04 04:53:50;;;;;;;2.22;2.03;;;19.70;99.90;;;;;;5073684;28;20055;-74
2022/08/04 04:56:37;;;;;;;2.38;1.73;;;19.60;99.90;;;;;;5073961;28;20032;-74
2022/08/04 04:59:15;;;;;;;2.35;1.98;;;19.50;99.90;;;;;;5074041;28;20028;-73
2022/08/04 05:01:50;;;;;;;4.80;2.38;;;19.60;99.90;;;;;;5057651;28;20154;-74
2022/08/04 05:04:50;;;;;;;6.82;1.65;;;19.30;99.90;;;;;;5073815;28;20020;-74
2022/08/04 05:07:35;;;;;;;2.20;1.90;;;19.30;99.90;;;;;;5073318;28;20032;-75
2022/08/04 05:10:09;;;;;;;2.58;2.35;;;19.50;99.90;;;;;;5073606;28;20051;-74
2022/08/04 05:13:02;;;;;;;2.33;2.13;;;19.40;99.90;;;;;;5073730;28;20100;-73
2022/08/04 05:15:33;;;;;;;2.60;2.40;;;19.40;99.90;;;;;;5073424;28;20039;-74
2022/08/04 05:18:03;;;;;;;2.33;2.13;;;19.50;99.90;;;;;;5073365;28;20510;-74
2022/08/04 05:20:37;;;;;;;4.95;2.40;;;19.70;99.90;;;;;;5073444;28;20104;-75
2022/08/04 05:23:18;;;;;;;2.30;2.10;;;19.90;99.90;;;;;;5073468;28;20028;-75
2022/08/04 05:25:52;;;;;;;2.53;2.33;;;20.00;99.90;;;;;;5073477;28;20017;-74
2022/08/04 05:28:24;;;;;;;2.50;2.30;;;19.90;99.90;;;;;;5073065;28;20036;-75
2022/08/04 05:31:00;;;;;;;3.17;2.40;;;20.10;99.90;;;;;;5055394;28;20024;-75
2022/08/04 05:33:33;;;;;;;3.17;2.65;;;20.40;99.90;;;;;;5072975;28;20105;-74
2022/08/04 05:36:05;;;;;;;2.63;2.13;;;20.20;99.90;;;;;;5072920;28;20056;-76
2022/08/04 05:38:36;;;;;;;3.70;3.00;;;20.00;99.90;;;;;;5055133;28;20020;-75
2022/08/04 05:41:03;;;;;;;3.22;2.70;;;20.00;99.90;;;;;;5072900;28;20048;-75
2022/08/04 05:43:29;;;;;;;2.35;2.00;;;19.90;99.90;;;;;;5072975;28;20078;-73
2022/08/04 05:45:56;;;;;;;3.03;2.38;;;19.80;99.90;;;;;;5073074;28;20028;-75
2022/08/04 05:48:23;;;;;;;5.22;2.15;;;19.90;99.90;;;;;;5072841;28;20024;-76
2022/08/04 05:50:50;;;;;;;5.95;2.30;;;19.90;99.90;;;;;;5072929;28;20487;-74
2022/08/04 05:53:16;;;;;;;2.60;2.40;;;20.10;99.90;;;;;;5072688;28;20027;-74
2022/08/04 05:55:43;;;;;;;2.47;2.28;;;20.20;99.90;;;;;;5055096;28;20495;-76
2022/08/04 05:58:10;;;;;;;3.13;2.58;;;20.30;99.90;;;;;;5072612;28;20394;-74
2022/08/04 06:00:37;;;;;;;2.33;2.13;;;20.50;99.90;;;;;;5072826;28;20051;-75
2022/08/04 06:03:04;;;;;;;2.90;2.25;;;20.60;99.90;;;;;;5072285;28;20475;-76
2022/08/04 06:05:31;;;;;;;2.20;2.05;;;20.70;99.90;;;;;;5072160;28;20078;-75
2022/08/04 06:07:57;;;;;;;2.40;2.20;;;20.90;99.90;;;;;;5072164;28;20055;-73
2022/08/04 06:10:25;;;;;;;3.70;1.85;;;21.10;99.90;;;;;;5072350;28;20392;-75
2022/08/04 06:13:05;;;;;;;2.20;2.00;;;21.20;99.90;;;;;;5054729;28;20024;-72
2022/08/04 06:15:34;;;;;;;2.70;1.83;;;21.20;99.90;;;;;;5072244;28;20098;-72
2022/08/04 06:18:03;;;;;;;2.28;2.08;;;21.40;99.90;;;;;;5071375;28;20020;-75
2022/08/04 06:20:32;;;;;;;2.10;1.90;;;21.40;99.90;;;;;;5072288;28;20024;-72
2022/08/04 06:23:00;;;;;;;2.50;2.30;;;21.50;99.90;;;;;;5072449;28;20028;-73
2022/08/04 06:25:33;;;;;;;3.75;2.30;;;21.60;99.90;;;;;;5072653;28;20017;-72
2022/08/04 06:28:04;;;;;;;2.13;1.80;;;21.80;99.90;;;;;;5054320;28;20036;-72
2022/08/04 06:30:31;;;;;;;2.13;1.92;;;21.80;99.90;;;;;;5071791;28;20044;-73
2022/08/04 06:33:01;;;;;;;2.30;2.03;;;22.00;99.80;;;;;;5071921;28;20021;-72
2022/08/04 06:35:28;;;;;;;1.90;1.75;;;22.10;98.10;;;;;;5071333;28;20383;-73
2022/08/04 06:37:55;;;;;;;2.63;1.67;;;22.30;96.40;;;;;;5054225;28;20018;-72
2022/08/04 06:40:23;;;;;;;2.67;1.90;;;22.50;96.20;;;;;;5072347;28;20035;-73
2022/08/04 06:42:50;;;;;;;2.47;1.55;;;22.60;94.00;;;;;;5072576;28;20488;-73
2022/08/04 06:45:18;;;;;;;2.63;2.05;;;22.80;92.10;;;;;;5072349;28;20035;-74
2022/08/04 06:47:44;;;;;;;3.30;1.60;;;22.90;92.30;;;;;;5072251;28;20113;-73
2022/08/04 06:50:11;;;;;;;1.35;1.17;;;23.10;91.70;;;;;;5072132;28;20108;-72
2022/08/04 06:52:37;;;;;;;3.35;1.83;;;23.20;91.90;;;;;;5072201;28;20025;-74
2022/08/04 06:55:05;;;;;;;1.30;1.20;;;23.30;91.80;;;;;;5072037;28;20471;-73
2022/08/04 06:57:33;;;;;;;1.65;1.55;;;23.50;91.60;;;;;;5072006;28;20032;-73
2022/08/04 07:00:10;;;;;;;4.65;1.30;;;23.60;90.60;;;;;;5071845;28;20028;-73
2022/08/04 07:02:57;;;;;;;3.80;1.30;;;23.70;87.50;;;;;;5071571;28;20020;-73
2022/08/04 07:05:23;;;;;;;1.25;1.15;;;23.90;86.70;;;;;;5071160;28;20042;-73
2022/08/04 07:07:49;;;;;;;1.40;1.30;;;24.10;85.70;;;;;;5070950;28;20005;-73
2022/08/04 07:10:17;;;;;;;1.67;1.38;;;24.20;85.50;;;;;;5070922;28;20028;-73
2022/08/04 07:12:42;;;;;;;4.05;1.02;;;24.40;86.20;;;;;;5071315;28;20021;-73
2022/08/04 07:15:10;;;;;;;2.45;1.25;;;24.50;85.90;;;;;;5071111;28;20384;-75
2022/08/04 07:17:36;;;;;;;1.40;1.33;;;24.70;85.00;;;;;;5071287;28;20016;-72
2022/08/04 07:20:05;;;;;;;1.77;1.50;;;24.90;86.60;;;;;;5053382;28;20052;-75
2022/08/04 07:22:32;;;;;;;1.60;1.50;;;25.10;84.60;;;;;;5071523;28;20479;-76
2022/08/04 07:24:58;;;;;;;1.50;1.27;;;25.30;86.60;;;;;;5071258;28;20040;-73
2022/08/04 07:27:25;;;;;;;1.77;1.38;;;25.50;85.80;;;;;;5071285;28;20012;-73
2022/08/04 07:29:51;;;;;;;2.45;1.52;;;;;;;;;;5073227;28;20611;-75
2022/08/04 07:32:21;;;;;;;1.85;1.52;;;26.10;86.50;;;;;;5075341;28;20042;-75
2022/08/04 07:34:48;;;;;;;2.65;1.75;;;26.30;84.70;;;;;;5075132;28;20070;-75
2022/08/04 07:37:14;;;;;;;4.00;1.65;;;26.50;82.50;;;;;;5075211;28;20096;-74
2022/08/04 07:39:40;;;;;;;2.47;1.98;;;26.50;83.50;;;;;;5075162;28;20421;-73
2022/08/04 07:42:06;;;;;;;2.00;1.88;;;26.70;84.70;;;;;;5075356;28;20169;-76
2022/08/04 07:44:33;;;;;;;1.48;1.23;;;26.90;83.60;;;;;;5074803;28;20037;-75
2022/08/04 07:47:01;;;;;;;1.50;1.40;;;26.90;82.30;;;;;;5075241;28;20121;-75
2022/08/04 07:49:27;;;;;;;1.30;1.30;;;27.00;80.80;;;;;;5057415;28;20371;-74
2022/08/04 07:51:53;;;;;;;1.73;1.63;;;27.10;82.80;;;;;;5075572;28;20066;-75
2022/08/04 07:54:20;;;;;;;1.10;1.00;;;27.20;81.00;;;;;;5075131;28;20033;-75
2022/08/04 07:56:50;;;;;;;1.35;1.25;;;27.30;81.70;;;;;;5074810;28;20479;-74
2022/08/04 07:59:19;;;;;;;1.83;1.42;;;27.50;81.00;;;;;;5074424;28;20020;-75
2022/08/04 08:01:46;;;;;;;1.38;0.82;;;27.50;77.30;;;;;;5074920;28;20017;-75
2022/08/04 08:04:13;;;;;;;3.28;0.70;;;27.70;71.80;;;;;;5074625;28;20032;-75
2022/08/04 08:06:39;;;;;;;1.35;0.93;;;27.80;68.20;;;;;;5074625;28;20099;-75
2022/08/04 08:09:11;;;;;;;0.70;0.70;;;27.90;64.40;;;;;;5074515;28;20082;-74
2022/08/04 08:11:38;;;;;;;2.05;0.98;;;28.10;63.20;;;;;;5074864;28;20032;-74
2022/08/04 08:14:04;;;;;;;0.77;0.77;;;28.20;63.60;;;;;;5074826;28;20051;-73
2022/08/04 08:16:32;;;;;;;9.27;1.05;;;28.30;63.40;;;;;;5074731;28;20032;-74
2022/08/04 08:18:59;;;;;;;0.95;0.90;;;28.30;62.60;;;;;;5074814;28;20064;-75
2022/08/04 08:21:25;;;;;;;2.85;0.80;;;28.40;62.60;;;;;;5074690;28;20033;-76
2022/08/04 08:23:51;;;;;;;0.75;0.75;;;28.50;63.80;;;;;;5074679;28;20032;-74
2022/08/04 08:26:17;;;;;;;1.08;1.08;;;28.60;63.50;;;;;;5074587;28;20021;-74
2022/08/04 08:28:43;;;;;;;1.83;1.08;;;28.70;64.20;;;;;;5074711;28;20077;-75
2022/08/04 08:31:09;;;;;;;3.97;1.27;;;28.80;65.40;;;;;;5074596;28;20531;-75
2022/08/04 08:33:35;;;;;;;1.77;0.98;;;28.90;64.00;;;;;;5074296;28;20182;-75
2022/08/04 08:36:10;;;;;;;0.88;0.88;;;29.00;63.80;;;;;;5074452;28;20371;-75
2022/08/04 08:39:02;;;;;;;0.82;0.82;;;29.00;61.90;;;;;;5056330;28;20020;-75
2022/08/04 08:41:36;;;;;;;1.02;1.02;;;29.00;62.80;;;;;;5073705;28;20456;-75
2022/08/04 08:44:07;;;;;;;1.17;1.02;;;29.00;63.70;;;;;;5074323;28;20534;-76
2022/08/04 08:46:57;;;;;;;2.88;1.10;;;29.10;63.90;;;;;;5074281;28;20040;-76
2022/08/04 08:49:49;;;;;;;1.20;1.10;;;29.20;64.30;;;;;;5074443;28;20103;-74
2022/08/04 08:52:29;;;;;;;2.33;1.15;;;29.30;61.80;;;;;;5032320;28;20044;-76
2022/08/04 08:55:19;;;;;;;2.63;1.02;;;29.50;61.40;;;;;;5074265;28;20084;-75
2022/08/04 08:57:51;;;;;;;0.90;0.90;;;29.60;61.50;;;;;;5074074;28;20052;-77
2022/08/04 09:00:32;;;;;;;1.02;0.90;;;29.60;62.60;;;;;;5074038;28;20021;-76
2022/08/04 09:03:35;;;;;;;1.52;1.00;;;29.70;62.20;;;;;;5076416;28;20360;-75
2022/08/04 09:06:33;;;;;;;0.88;0.82;;;29.80;62.10;;;;;;5084519;28;20048;-76
2022/08/04 09:08:58;;;;;;;1.20;1.02;;;29.80;61.80;;;;;;5044099;28;20260;-74
2022/08/04 09:11:29;;;;;;;0.80;0.80;;;29.90;59.80;;;;;;5073371;28;20548;-75
2022/08/04 09:14:15;;;;;;;3.28;1.10;;;30.00;60.20;;;;;;5073430;28;20035;-74
2022/08/04 09:16:52;;;;;;;2.30;0.90;;;30.00;59.50;;;;;;5073573;28;20023;-75
2022/08/04 09:19:20;;;;;;;0.98;0.98;;;30.00;58.60;;;;;;5073062;28;20037;-74
2022/08/04 09:22:19;;;;;;;2.90;0.85;;;30.00;58.80;;;;;;5055553;28;20025;-74
2022/08/04 09:25:09;;;;;;;1.25;1.00;;;30.10;57.10;;;;;;5072837;28;20104;-74
2022/08/04 09:28:06;;;;;;;0.70;0.70;;;30.10;57.60;;;;;;5072522;28;20028;-74
2022/08/04 09:30:44;;;;;;;1.05;0.77;;;30.20;57.20;;;;;;5055250;28;20028;-77
2022/08/04 09:33:33;;;;;;;1.08;0.80;;;30.30;57.10;;;;;;5073466;28;20032;-78
2022/08/04 09:36:34;;;;;;;1.50;0.80;;;30.30;56.00;;;;;;5073259;28;20035;-75
2022/08/04 09:39:19;;;;;;;1.00;1.00;;;30.30;57.10;;;;;;5055215;28;20376;-76
2022/08/04 09:42:03;;;;;;;3.10;1.42;;;30.40;55.70;;;;;;5058796;28;20064;-77
2022/08/04 09:45:01;;;;;;;2.40;1.73;;;30.40;54.90;;;;;;5073288;28;20028;-74
2022/08/04 09:47:33;;;;;;;1.77;0.90;;;30.40;56.90;;;;;;5041745;28;20436;-74
2022/08/04 09:50:34;;;;;;;0.65;0.57;;;30.50;56.60;;;;;;5073090;28;20021;-78
2022/08/04 09:53:23;;;;;;;2.65;0.98;;;30.40;56.00;;;;;;5072993;28;20027;-77
2022/08/04 09:56:02;;;;;;;0.75;0.70;;;30.50;58.00;;;;;;5034701;28;20135;-78
2022/08/04 09:58:45;;;;;;;0.77;0.73;;;30.50;56.80;;;;;;5072458;28;20472;-77
2022/08/04 10:01:16;;;;;;;0.57;0.57;;;30.50;57.80;;;;;;5072725;28;20024;-78
2022/08/04 10:03:48;;;;;;;1.05;0.88;;;30.50;57.50;;;;;;5072584;28;20020;-77
2022/08/04 10:06:45;;;;;;;0.60;0.60;;;30.60;57.70;;;;;;5071841;28;20025;-80
2022/08/04 10:09:34;;;;;;;2.17;0.90;;;30.70;57.30;;;;;;5072422;28;20040;-78
2022/08/04 10:12:04;;;;;;;1.17;1.13;;;30.80;59.10;;;;;;5072300;28;20453;-79
2022/08/04 10:14:38;;;;;;;0.90;0.90;;;31.00;59.10;;;;;;5072195;28;20497;-78
2022/08/04 10:17:19;;;;;;;1.00;0.98;;;31.00;57.70;;;;;;5072117;28;20032;-77
2022/08/04 10:19:55;;;;;;;1.15;1.05;;;31.00;57.20;;;;;;5071990;28;20113;-79
2022/08/04 10:22:27;;;;;;;0.80;0.80;;;31.00;58.10;;;;;;5072307;28;20059;-79
2022/08/04 10:25:13;;;;;;;0.85;0.85;;;30.90;58.10;;;;;;5072131;28;20035;-79
2022/08/04 10:27:50;;;;;;;1.73;0.90;;;31.00;58.70;;;;;;5072297;28;20530;-78
2022/08/04 10:30:18;;;;;;;1.05;0.98;;;31.10;59.90;;;;;;5054257;28;20029;-77
2022/08/04 10:32:51;;;;;;;1.70;0.90;;;31.10;60.00;;;;;;5072205;28;20025;-77
2022/08/04 10:35:23;;;;;;;0.75;0.70;;;31.10;59.20;;;;;;5071746;28;20037;-75
2022/08/04 10:37:49;;;;;;;1.75;0.70;;;31.10;59.40;;;;;;5054073;28;20025;-78
2022/08/04 10:40:37;;;;;;;0.90;0.90;;;31.10;59.90;;;;;;5072527;28;20028;-79
2022/08/04 10:43:13;;;;;;;0.85;0.85;;;31.40;60.20;;;;;;5072485;28;20408;-79
2022/08/04 10:45:45;;;;;;;1.80;1.00;;;31.60;60.00;;;;;;5072685;28;20043;-80
2022/08/04 10:48:24;;;;;;;0.77;0.77;;;31.80;59.40;;;;;;5072339;28;20070;-78
2022/08/04 10:51:19;;;;;;;1.35;0.80;;;31.90;58.70;;;;;;5072158;28;20020;-79
2022/08/04 10:53:54;;;;;;;0.63;0.63;;;32.10;60.80;;;;;;5072084;28;20480;-79
2022/08/04 10:56:28;;;;;;;;;;;32.10;58.80;;;;;;5054506;28;20399;-79
2022/08/04 10:59:01;;;;;;;1.00;0.90;;;32.10;58.80;;;;;;5071945;28;19939;-78
2022/08/04 11:01:34;;;;;;;0.95;0.95;;;32.10;59.90;;;;;;5053932;28;21083;-78
2022/08/04 11:04:07;;;;;;;1.63;0.80;;;32.10;60.40;;;;;;5072197;28;20104;-79
2022/08/04 11:06:35;;;;;;;1.13;1.10;;;32.10;60.50;;;;;;5058233;28;20032;-79
2022/08/04 11:09:04;;;;;;;1.60;1.25;;;32.10;60.00;;;;;;5075962;28;20028;-76
2022/08/04 11:11:40;;;;;;;1.00;1.00;;;32.10;59.60;;;;;;5075661;28;20025;-79
2022/08/04 11:14:30;;;;;;;2.20;0.90;;;31.90;60.30;;;;;;5075668;28;20043;-78
2022/08/04 11:17:14;;;;;;;1.02;0.77;;;31.90;59.50;;;;;;5075416;28;20020;-76
2022/08/04 11:19:43;;;;;;;0.70;0.70;;;31.50;58.60;;;;;;5075426;28;20496;-78
2022/08/04 11:22:29;;;;;;;1.05;1.05;;;31.40;59.60;;;;;;5075318;28;20732;-78
2022/08/04 11:25:16;;;;;;;2.65;1.20;;;31.30;59.80;;;;;;5075183;28;20491;-78
2022/08/04 11:27:48;;;;;;;0.82;0.82;;;31.20;60.50;;;;;;5075257;28;20024;-78
2022/08/04 11:30:16;;;;;;;1.23;0.82;;;31.30;61.80;;;;;;5057378;28;20690;-77
2022/08/04 11:33:04;;;;;;;0.57;0.57;;;31.50;59.20;;;;;;5075378;28;20025;-78
2022/08/04 11:35:49;;;;;;;0.80;0.73;;;31.60;58.90;;;;;;5075127;28;20488;-77
2022/08/04 11:38:28;;;;;;;0.70;0.70;;;31.70;57.60;;;;;;5075297;28;20025;-78
2022/08/04 11:41:00;;;;;;;3.13;1.10;;;31.80;58.50;;;;;;5075233;28;20718;-78
2022/08/04 11:43:37;;;;;;;1.33;0.80;;;31.80;57.70;;;;;;5075095;28;20048;-77
2022/08/04 11:46:11;;;;;;;1.42;0.75;;;31.90;58.90;;;;;;5075184;28;20083;-78
2022/08/04 11:48:43;;;;;;;0.80;0.80;;;31.90;58.50;;;;;;5075174;28;20013;-78
2022/08/04 11:51:10;;;;;;;1.00;1.00;;;32.10;59.60;;;;;;5075339;28;20833;-79
2022/08/04 11:53:38;;;;;;;0.80;0.80;;;32.10;58.10;;;;;;5074898;28;20009;-78
2022/08/04 11:56:09;;;;;;;0.80;0.70;;;32.20;57.40;;;;;;5074779;28;20016;-76
2022/08/04 11:58:35;;;;;;;1.27;1.17;;;32.20;57.10;;;;;;5074949;28;20013;-78
2022/08/04 12:01:34;;;;;;;0.68;0.60;;;32.00;55.50;;;;;;5074774;28;20028;-78
2022/08/04 12:04:28;;;;;;;2.05;0.93;;;31.70;55.90;;;;;;5074808;28;20475;-76
2022/08/04 12:07:21;;;;;;;1.45;1.00;;;31.70;58.00;;;;;;5074542;28;20074;-77
2022/08/04 12:10:08;;;;;;;2.70;1.02;;;31.80;58.40;;;;;;5074618;28;20029;-77
2022/08/04 12:12:42;;;;;;;1.10;1.00;;;31.90;58.60;;;;;;5074341;28;20032;-77
2022/08/04 12:15:43;;;;;;;2.30;1.40;;;32.10;58.60;;;;;;5074539;28;20472;-77
2022/08/04 12:18:33;;;;;;;0.93;0.90;;;32.20;57.60;;;;;;5029228;28;20036;-77
2022/08/04 12:21:08;;;;;;;1.83;1.10;;;32.20;57.10;;;;;;5074246;28;20111;-79
2022/08/04 12:23:43;;;;;;;2.10;0.88;;;32.20;57.10;;;;;;5073981;28;20372;-75
2022/08/04 12:26:33;;;;;;;1.13;1.13;;;32.20;57.20;;;;;;5073814;28;20024;-75
2022/08/04 12:29:00;;;;;;;0.85;0.85;;;32.30;56.70;;;;;;5073928;28;20043;-75
2022/08/04 12:31:33;;;;;;;1.48;1.20;;;32.30;57.30;;;;;;5074288;28;20028;-77
2022/08/04 12:34:07;;;;;;;1.15;1.08;;;32.40;56.50;;;;;;5074257;28;20036;-77
2022/08/04 12:36:54;;;;;;;0.73;0.73;;;32.40;56.20;;;;;;5074269;28;20035;-76
2022/08/04 12:39:21;;;;;;;0.85;0.80;;;32.40;57.30;;;;;;5074329;28;20024;-78
2022/08/04 12:41:57;;;;;;;0.88;0.88;;;32.40;56.00;;;;;;5074230;28;20557;-76
2022/08/04 12:44:24;;;;;;;2.25;0.82;;;32.40;55.90;;;;;;5073963;28;20043;-75
2022/08/04 12:46:50;;;;;;;1.10;0.90;;;32.40;56.50;;;;;;5073468;28;20017;-76
2022/08/04 12:49:16;;;;;;;1.25;1.15;;;32.40;55.80;;;;;;5073935;28;20043;-74
2022/08/04 12:51:44;;;;;;;0.70;0.70;;;32.40;58.50;;;;;;5074101;28;20468;-73
2022/08/04 12:54:11;;;;;;;0.80;0.80;;;32.40;58.00;;;;;;5074946;28;20040;-74
2022/08/04 12:56:37;;;;;;;0.90;0.90;;;32.50;57.60;;;;;;5074046;28;20368;-76
2022/08/04 12:59:07;;;;;;;1.08;1.00;;;32.60;57.50;;;;;;5075585;28;20033;-74
2022/08/04 13:01:34;;;;;;;1.70;1.60;;;32.60;57.70;;;;;;5074324;28;20054;-76
2022/08/04 13:04:21;;;;;;;1.67;0.90;;;32.50;55.90;;;;;;5055650;28;20031;-74
2022/08/04 13:06:59;;;;;;;1.15;1.05;;;32.60;55.90;;;;;;5073680;28;20106;-75
2022/08/04 13:09:30;;;;;;;1.35;0.90;;;32.40;54.60;;;;;;5055486;28;20085;-74
2022/08/04 13:12:00;;;;;;;1.15;0.90;;;32.30;56.80;;;;;;5073686;28;20025;-77
2022/08/04 13:14:32;;;;;;;2.42;0.90;;;32.50;56.40;;;;;;5076071;28;20036;-76
2022/08/04 13:16:59;;;;;;;1.33;1.20;;;32.50;56.40;;;;;;5044548;28;20043;-76
2022/08/04 13:19:27;;;;;;;0.88;0.80;;;32.50;55.60;;;;;;5079882;28;20415;-75
2022/08/04 13:21:56;;;;;;;1.15;1.00;;;32.40;56.50;;;;;;5072919;28;20024;-75
2022/08/04 13:24:22;;;;;;;1.63;1.15;;;32.30;56.70;;;;;;5072533;28;20025;-76
2022/08/04 13:27:01;;;;;;;1.73;0.70;;;32.30;57.00;;;;;;5072266;28;20116;-77
2022/08/04 13:29:49;;;;;;;0.70;0.70;;;32.30;58.30;;;;;;5072524;28;20025;-77
2022/08/04 13:32:19;;;;;;;0.50;0.50;;;32.40;56.80;;;;;;5072923;28;20043;-78
2022/08/04 13:34:47;;;;;;;2.95;0.90;;;32.50;57.80;;;;;;5071697;28;20044;-77
2022/08/04 13:37:14;;;;;;;1.00;0.90;;;32.60;57.30;;;;;;5072897;28;20430;-78